Time;durP1;ratioP1;P1;durP2;ratioP2;P2;SDS_P1;SDS_P2;PMS_P1;PMS_P2;Temp;Humidity;BMP_temperature;BMP_pressure;BME280_temperature;BME280_humidity;BME280_pressure;Samples;Min_cycle;Max_cycle;Signal;HPM_P1;HPM_P2
2021/09/10 00:01:00;;;;;;;14.98;8.50;;;20.40;93.30;;;;;;7406308;19;20015;-89
2021/09/10 00:03:32;;;;;;;12.60;8.20;;;20.40;93.40;;;;;;7405891;19;20014;-88
2021/09/10 00:06:02;;;;;;;15.88;9.00;;;20.40;93.50;;;;;;7409542;19;20015;-90
2021/09/10 00:08:34;;;;;;;15.73;8.60;;;20.40;93.70;;;;;;7409212;19;20022;-89
2021/09/10 00:11:03;;;;;;;16.88;8.77;;;20.40;93.90;;;;;;7406885;19;20013;-90
2021/09/10 00:13:33;;;;;;;13.82;9.13;;;20.30;94.10;;;;;;7408304;19;20014;-89
2021/09/10 00:16:02;;;;;;;13.52;8.63;;;20.30;94.30;;;;;;7410122;19;20023;-93
2021/09/10 00:18:34;;;;;;;13.20;9.15;;;20.30;94.50;;;;;;7422606;19;20007;-92
2021/09/10 00:21:04;;;;;;;14.13;9.38;;;20.30;94.70;;;;;;7430694;19;20698;-92
2021/09/10 00:23:38;;;;;;;14.55;8.95;;;20.30;94.90;;;;;;7431812;19;20006;-92
2021/09/10 00:26:08;;;;;;;13.15;9.55;;;20.20;95.20;;;;;;7420622;19;20006;-92
2021/09/10 00:28:40;;;;;;;15.35;8.98;;;20.20;95.40;;;;;;7411760;19;20014;-93
2021/09/10 00:31:09;;;;;;;13.75;9.60;;;20.20;95.50;;;;;;7408490;19;20040;-91
2021/09/10 00:33:39;;;;;;;16.05;9.10;;;20.20;95.70;;;;;;7407543;19;20018;-91
2021/09/10 00:36:08;;;;;;;18.83;8.77;;;20.20;95.90;;;;;;7415339;19;20558;-92
2021/09/10 00:38:42;;;;;;;12.30;8.68;;;20.20;95.90;;;;;;7414816;19;20015;-92
2021/09/10 00:41:12;;;;;;;13.20;8.45;;;20.10;96.10;;;;;;7409645;19;20077;-93
2021/09/10 00:43:46;;;;;;;16.50;8.77;;;20.20;96.30;;;;;;7404070;19;20018;-92
2021/09/10 00:46:16;;;;;;;16.23;9.57;;;20.20;96.40;;;;;;7403663;19;20017;-92
2021/09/10 00:48:46;;;;;;;14.35;8.60;;;20.20;96.60;;;;;;7403282;19;20017;-90
2021/09/10 00:51:15;;;;;;;16.67;9.00;;;20.10;96.90;;;;;;7424446;19;20078;-89
2021/09/10 00:53:50;;;;;;;12.30;9.30;;;20.00;97.20;;;;;;7413851;19;20019;-91
2021/09/10 00:56:23;;;;;;;13.23;9.10;;;20.00;97.50;;;;;;7418673;19;20038;-90
2021/09/10 00:58:53;;;;;;;13.23;9.70;;;20.00;97.70;;;;;;7414005;19;20013;-89
2021/09/10 01:01:22;;;;;;;16.17;9.90;;;20.00;98.10;;;;;;7421584;19;20010;-88
2021/09/10 01:03:53;;;;;;;12.77;9.57;;;20.00;98.00;;;;;;7419031;19;20099;-88
2021/09/10 01:06:26;;;;;;;16.25;10.63;;;20.00;98.30;;;;;;7408489;19;20021;-90
2021/09/10 01:09:03;;;;;;;15.80;9.55;;;20.00;98.50;;;;;;7404167;19;20011;-90
2021/09/10 01:11:33;;;;;;;17.10;10.02;;;20.00;98.70;;;;;;7404417;19;20074;-90
2021/09/10 01:14:04;;;;;;;18.55;10.10;;;19.90;98.90;;;;;;7402432;19;20029;-90
2021/09/10 01:16:33;;;;;;;15.90;8.98;;;19.90;99.10;;;;;;7406952;19;20031;-90
2021/09/10 01:19:05;;;;;;;17.40;10.02;;;19.90;99.30;;;;;;7404956;19;20018;-92
2021/09/10 01:21:35;;;;;;;19.30;10.50;;;19.90;99.40;;;;;;7403621;19;20313;-92
2021/09/10 01:24:08;;;;;;;17.15;10.00;;;19.90;99.80;;;;;;7411044;19;20015;-89
2021/09/10 01:26:40;;;;;;;17.95;9.98;;;19.80;99.90;;;;;;7426486;19;20050;-89
2021/09/10 01:29:09;;;;;;;17.92;9.85;;;19.80;99.90;;;;;;7423709;19;20011;-90
2021/09/10 01:31:38;;;;;;;15.48;10.35;;;19.70;99.90;;;;;;7426975;19;20039;-90
2021/09/10 01:34:08;;;;;;;12.60;10.18;;;19.70;99.90;;;;;;7422946;19;20010;-91
2021/09/10 01:36:37;;;;;;;16.50;10.02;;;19.70;99.90;;;;;;7424351;19;20023;-89
2021/09/10 01:39:07;;;;;;;15.90;10.50;;;19.70;99.90;;;;;;7427205;19;20031;-90
2021/09/10 01:41:39;;;;;;;17.83;10.88;;;19.70;99.90;;;;;;7414281;19;20007;-89
2021/09/10 01:44:08;;;;;;;20.95;9.90;;;19.70;99.90;;;;;;7409498;19;20432;-89
2021/09/10 01:46:37;;;;;;;16.73;10.70;;;19.60;99.90;;;;;;7408816;19;20083;-89
2021/09/10 01:49:07;;;;;;;14.98;10.50;;;19.60;99.90;;;;;;7403002;19;20041;-89
2021/09/10 01:51:37;;;;;;;17.55;10.70;;;19.60;99.90;;;;;;7402495;19;20074;-90
2021/09/10 01:54:06;;;;;;;14.48;10.05;;;19.50;99.90;;;;;;7409840;19;20039;-90
2021/09/10 01:56:40;;;;;;;17.38;10.65;;;19.60;99.90;;;;;;7408097;19;20005;-90
2021/09/10 01:59:09;;;;;;;15.27;10.45;;;19.60;99.90;;;;;;7406903;19;20006;-92
2021/09/10 02:01:39;;;;;;;17.75;10.68;;;19.50;99.90;;;;;;7415445;19;20003;-91
2021/09/10 02:04:10;;;;;;;18.17;11.27;;;19.50;99.90;;;;;;7410236;19;20020;-91
2021/09/10 02:06:42;;;;;;;23.75;11.25;;;19.40;99.90;;;;;;7412019;19;20010;-88
2021/09/10 02:09:11;;;;;;;17.42;10.43;;;19.50;99.90;;;;;;7402382;19;20504;-89
2021/09/10 02:11:44;;;;;;;15.90;10.88;;;19.50;99.90;;;;;;7405180;19;20010;-90
2021/09/10 02:14:18;;;;;;;17.90;10.43;;;19.40;99.90;;;;;;7408937;19;20019;-91
2021/09/10 02:16:47;;;;;;;18.70;10.05;;;19.40;99.90;;;;;;7403978;19;20015;-91
2021/09/10 02:19:16;;;;;;;15.57;10.35;;;19.40;99.90;;;;;;7403412;19;20018;-90
2021/09/10 02:21:46;;;;;;;17.40;10.48;;;19.50;99.90;;;;;;7406034;19;20012;-90
2021/09/10 02:24:15;;;;;;;15.68;10.43;;;19.40;99.90;;;;;;7414696;19;20018;-90
2021/09/10 02:26:47;;;;;;;23.05;11.23;;;19.50;99.90;;;;;;7427268;19;20018;-90
2021/09/10 02:29:16;;;;;;;17.85;11.18;;;19.40;99.90;;;;;;7424201;19;20034;-91
2021/09/10 02:31:46;;;;;;;17.40;11.90;;;19.40;99.90;;;;;;7426825;19;20017;-90
2021/09/10 02:34:18;;;;;;;23.48;11.10;;;19.40;99.90;;;;;;7417050;19;20324;-89
2021/09/10 02:36:49;;;;;;;17.20;11.15;;;19.40;99.90;;;;;;7437071;19;20022;-92
2021/09/10 02:39:19;;;;;;;16.25;11.50;;;19.30;99.90;;;;;;7434782;19;20023;-92
2021/09/10 02:41:51;;;;;;;16.42;11.35;;;19.30;99.90;;;;;;7434030;19;20006;-91
2021/09/10 02:44:20;;;;;;;14.93;11.07;;;19.30;99.90;;;;;;7425935;19;20011;-91
2021/09/10 02:46:53;;;;;;;18.88;10.60;;;19.30;99.90;;;;;;7426288;19;20070;-92
2021/09/10 02:49:25;;;;;;;16.40;11.32;;;19.20;99.90;;;;;;7423443;19;20015;-92
2021/09/10 02:51:56;;;;;;;16.77;11.48;;;19.20;99.90;;;;;;7415044;19;20014;-90
2021/09/10 02:54:26;;;;;;;17.17;12.18;;;19.20;99.90;;;;;;7412411;19;20266;-88
2021/09/10 02:56:58;;;;;;;16.90;11.82;;;19.20;99.90;;;;;;7410296;19;20622;-88
2021/09/10 02:59:28;;;;;;;17.70;12.20;;;19.20;99.90;;;;;;7410647;19;20014;-88
2021/09/10 03:02:00;;;;;;;18.67;11.35;;;19.20;99.90;;;;;;7413520;19;20017;-91
2021/09/10 03:04:29;;;;;;;18.42;11.52;;;19.20;99.90;;;;;;7411960;19;20014;-89
2021/09/10 03:07:01;;;;;;;17.95;11.45;;;19.10;99.90;;;;;;7411466;19;20007;-89
2021/09/10 03:09:34;;;;;;;21.75;11.82;;;19.10;99.90;;;;;;7410782;19;20100;-90
2021/09/10 03:12:06;;;;;;;21.00;11.55;;;19.00;99.90;;;;;;7411058;19;20074;-90
2021/09/10 03:14:36;;;;;;;18.42;12.25;;;19.00;99.90;;;;;;7409091;19;20671;-89
2021/09/10 03:17:33;;;;;;;19.17;11.25;;;19.00;99.90;;;;;;7408118;19;20070;-90
2021/09/10 03:20:06;;;;;;;17.65;11.55;;;19.00;99.90;;;;;;7411566;19;20002;-90
2021/09/10 03:22:37;;;;;;;16.40;11.57;;;19.00;99.90;;;;;;7409534;19;20014;-88
2021/09/10 03:25:08;;;;;;;19.48;12.32;;;19.10;99.90;;;;;;7412745;19;20017;-89
2021/09/10 03:27:40;;;;;;;19.95;11.88;;;19.00;99.90;;;;;;7411325;19;20029;-88
2021/09/10 03:30:13;;;;;;;16.17;11.48;;;19.00;99.90;;;;;;7411865;19;20026;-88
2021/09/10 03:32:46;;;;;;;17.45;10.93;;;19.00;99.90;;;;;;7409854;19;20003;-88
2021/09/10 03:35:17;;;;;;;18.08;11.40;;;19.00;99.90;;;;;;7415014;19;20006;-88
2021/09/10 03:37:47;;;;;;;19.60;11.90;;;19.00;99.90;;;;;;7409145;19;20769;-88
2021/09/10 03:40:17;;;;;;;20.30;11.98;;;19.00;99.90;;;;;;7414282;19;20022;-88
2021/09/10 03:42:49;;;;;;;16.02;11.68;;;19.00;99.90;;;;;;7410040;19;20042;-87
2021/09/10 03:45:20;;;;;;;16.17;11.15;;;19.10;99.90;;;;;;7409027;19;20014;-90
2021/09/10 03:47:52;;;;;;;17.60;12.20;;;19.00;99.90;;;;;;7407054;19;20010;-90
2021/09/10 03:50:23;;;;;;;20.75;12.23;;;19.00;99.90;;;;;;7409959;19;20014;-91
2021/09/10 03:52:53;;;;;;;16.58;11.88;;;19.00;99.90;;;;;;7409479;19;20014;-90
2021/09/10 03:55:22;;;;;;;19.95;12.43;;;18.90;99.90;;;;;;7409205;19;20011;-90
2021/09/10 03:57:54;;;;;;;26.52;13.48;;;18.90;99.90;;;;;;7408365;19;20006;-88
2021/09/10 04:00:24;;;;;;;18.88;12.30;;;18.90;99.90;;;;;;7405460;19;20020;-89
2021/09/10 04:02:54;;;;;;;17.25;12.55;;;18.90;99.90;;;;;;7405086;19;20021;-88
2021/09/10 04:05:27;;;;;;;24.27;12.90;;;18.80;99.90;;;;;;7406739;19;20014;-89
2021/09/10 04:07:57;;;;;;;19.80;13.23;;;18.80;99.90;;;;;;7410577;19;20010;-91
2021/09/10 04:10:27;;;;;;;19.42;13.38;;;18.80;99.90;;;;;;7409208;19;20015;-91
2021/09/10 04:13:00;;;;;;;17.95;12.00;;;18.90;99.90;;;;;;7408162;19;20006;-91
2021/09/10 04:15:32;;;;;;;22.50;13.00;;;18.90;99.90;;;;;;7411733;19;20022;-91
2021/09/10 04:18:02;;;;;;;18.30;12.95;;;18.90;99.90;;;;;;7409767;19;20029;-89
2021/09/10 04:20:33;;;;;;;19.00;11.93;;;18.80;99.90;;;;;;7403567;19;20019;-91
2021/09/10 04:23:03;;;;;;;21.63;13.50;;;18.80;99.90;;;;;;7405349;19;20011;-88
2021/09/10 04:25:34;;;;;;;21.83;12.68;;;18.80;99.90;;;;;;7405338;19;20074;-87
2021/09/10 04:28:07;;;;;;;20.92;13.63;;;18.80;99.90;;;;;;7416237;19;20026;-90
2021/09/10 04:30:38;;;;;;;19.23;13.20;;;18.80;99.90;;;;;;7422808;19;20014;-91
2021/09/10 04:33:08;;;;;;;19.10;14.27;;;18.80;99.90;;;;;;7415394;19;20014;-91
2021/09/10 04:35:37;;;;;;;21.15;13.68;;;18.80;99.90;;;;;;7408547;19;20003;-91
2021/09/10 04:38:07;;;;;;;21.15;12.55;;;18.80;99.90;;;;;;7410046;19;20011;-92
2021/09/10 04:40:38;;;;;;;16.70;12.27;;;18.80;99.90;;;;;;7420080;19;20019;-91
2021/09/10 04:43:13;;;;;;;19.55;12.32;;;18.80;99.90;;;;;;7410971;19;20011;-89
2021/09/10 04:45:42;;;;;;;19.33;12.88;;;18.70;99.90;;;;;;7402542;19;20022;-91
2021/09/10 04:48:13;;;;;;;20.88;12.82;;;18.70;99.90;;;;;;7404149;19;20022;-90
2021/09/10 04:50:43;;;;;;;23.88;12.85;;;18.70;99.90;;;;;;7404538;19;20020;-89
2021/09/10 04:53:15;;;;;;;22.42;14.27;;;18.60;99.90;;;;;;7410768;19;20014;-90
2021/09/10 04:55:44;;;;;;;18.80;13.05;;;18.60;99.90;;;;;;7423421;19;20007;-89
2021/09/10 04:58:17;;;;;;;21.35;14.23;;;18.60;99.90;;;;;;7426673;19;20019;-91
2021/09/10 05:00:46;;;;;;;18.33;13.10;;;18.60;99.90;;;;;;7428239;19;20006;-92
2021/09/10 05:03:16;;;;;;;21.23;12.80;;;18.60;99.90;;;;;;7419803;19;20025;-93
2021/09/10 05:05:45;;;;;;;16.98;12.80;;;18.70;99.90;;;;;;7414736;19;20329;-92
2021/09/10 05:08:15;;;;;;;23.15;13.90;;;18.70;99.90;;;;;;7414170;19;20026;-91
2021/09/10 05:10:49;;;;;;;19.75;13.80;;;18.70;99.90;;;;;;7419358;19;20010;-88
2021/09/10 05:13:21;;;;;;;23.40;13.55;;;18.70;99.90;;;;;;7419058;19;20039;-89
2021/09/10 05:15:55;;;;;;;19.30;12.80;;;18.70;99.90;;;;;;7423191;19;20016;-87
2021/09/10 05:18:24;;;;;;;22.52;13.65;;;18.70;99.90;;;;;;7417742;19;20043;-87
2021/09/10 05:20:56;;;;;;;19.00;13.32;;;18.80;99.90;;;;;;7422280;19;20034;-92
2021/09/10 05:23:25;;;;;;;23.38;13.25;;;18.80;99.90;;;;;;7426595;19;20011;-90
2021/09/10 05:25:57;;;;;;;22.52;13.23;;;18.90;99.90;;;;;;7427097;19;20017;-92
2021/09/10 05:28:29;;;;;;;21.30;13.23;;;19.00;99.90;;;;;;7423410;19;20032;-93
2021/09/10 05:31:01;;;;;;;17.50;12.63;;;19.00;99.90;;;;;;7418819;19;20010;-92
2021/09/10 05:33:30;;;;;;;22.95;13.63;;;19.20;99.90;;;;;;7419049;19;20014;-92
2021/09/10 05:36:02;;;;;;;21.42;13.25;;;19.30;99.90;;;;;;7417399;19;20025;-91
2021/09/10 05:38:34;;;;;;;23.55;12.82;;;19.30;99.90;;;;;;7415147;19;20021;-91
2021/09/10 05:41:04;;;;;;;30.48;13.48;;;19.50;99.90;;;;;;7410740;19;20011;-92
2021/09/10 05:43:36;;;;;;;19.70;12.18;;;19.50;99.90;;;;;;7407839;19;20011;-90
2021/09/10 05:46:06;;;;;;;26.20;12.10;;;19.70;99.90;;;;;;7407717;19;20082;-89
2021/09/10 05:48:35;;;;;;;19.90;12.35;;;19.70;99.90;;;;;;7407994;19;20010;-91
2021/09/10 05:51:08;;;;;;;17.77;11.50;;;19.70;99.90;;;;;;7408206;19;20013;-92
2021/09/10 05:53:42;;;;;;;20.40;12.00;;;19.70;99.90;;;;;;7409636;19;20290;-90
2021/09/10 05:56:11;;;;;;;17.30;10.98;;;19.70;99.90;;;;;;7403822;19;20007;-92
2021/09/10 05:58:46;;;;;;;19.50;11.45;;;19.60;99.90;;;;;;7406664;19;20312;-92
2021/09/10 06:01:15;;;;;;;23.55;12.98;;;19.50;99.90;;;;;;7412015;19;20006;-90
2021/09/10 06:03:47;;;;;;;20.00;11.77;;;19.50;99.90;;;;;;7411279;19;20006;-93
2021/09/10 06:06:16;;;;;;;19.90;12.30;;;19.50;99.90;;;;;;7410066;19;20028;-90
2021/09/10 06:08:50;;;;;;;20.50;13.30;;;19.60;99.90;;;;;;7409722;19;20014;-90
2021/09/10 06:11:24;;;;;;;20.95;11.60;;;19.70;99.90;;;;;;7411346;19;20074;-90
2021/09/10 06:13:56;;;;;;;22.75;11.93;;;19.70;99.90;;;;;;7408932;19;20009;-90
2021/09/10 06:16:26;;;;;;;18.05;11.63;;;19.80;99.90;;;;;;7413109;19;20093;-91
2021/09/10 06:18:55;;;;;;;20.75;11.95;;;19.90;99.90;;;;;;7407622;19;20408;-91
2021/09/10 06:21:24;;;;;;;14.95;11.38;;;19.90;99.90;;;;;;7407347;19;20675;-91
2021/09/10 06:23:56;;;;;;;14.88;10.60;;;20.00;99.90;;;;;;7412810;19;20002;-91
2021/09/10 06:26:29;;;;;;;22.98;12.43;;;20.00;99.90;;;;;;7410203;19;20013;-89
2021/09/10 06:29:01;;;;;;;19.13;11.93;;;20.00;99.90;;;;;;7409384;19;20010;-89
2021/09/10 06:31:35;;;;;;;17.98;11.38;;;20.00;99.90;;;;;;7408778;19;20014;-90
2021/09/10 06:34:05;;;;;;;21.63;11.88;;;20.00;99.90;;;;;;7412977;19;20015;-89
2021/09/10 06:36:34;;;;;;;15.65;11.18;;;20.10;99.90;;;;;;7408357;19;20014;-90
2021/09/10 06:39:11;;;;;;;20.48;11.15;;;20.00;99.90;;;;;;7409874;19;20385;-89
2021/09/10 06:41:40;;;;;;;22.38;11.02;;;20.00;99.90;;;;;;7430538;19;20403;-91
2021/09/10 06:44:19;;;;;;;16.02;11.18;;;20.10;99.90;;;;;;7428883;19;20006;-91
2021/09/10 06:46:48;;;;;;;15.75;9.85;;;20.10;99.90;;;;;;7429816;19;20027;-89
2021/09/10 06:49:17;;;;;;;16.13;10.15;;;20.20;99.90;;;;;;7414015;19;20034;-90
2021/09/10 06:51:49;;;;;;;14.20;9.98;;;20.30;99.90;;;;;;7414380;19;20014;-90
2021/09/10 06:54:19;;;;;;;15.98;10.00;;;20.30;99.90;;;;;;7410542;19;20015;-91
2021/09/10 06:56:48;;;;;;;16.58;9.85;;;20.40;99.90;;;;;;7409772;19;20311;-90
2021/09/10 06:59:21;;;;;;;12.52;9.23;;;20.50;99.90;;;;;;7414315;19;20003;-90
2021/09/10 07:01:52;;;;;;;14.80;9.68;;;20.60;99.90;;;;;;7408013;19;20112;-92
2021/09/10 07:04:22;;;;;;;18.83;9.38;;;20.70;99.90;;;;;;7411278;19;20074;-90
2021/09/10 07:06:51;;;;;;;11.85;8.52;;;20.70;99.90;;;;;;7409613;19;20046;-88
2021/09/10 07:09:23;;;;;;;17.45;9.73;;;20.70;99.90;;;;;;7413010;19;20011;-89
2021/09/10 07:11:54;;;;;;;17.67;9.80;;;20.70;99.90;;;;;;7423174;19;20002;-88
2021/09/10 07:14:26;;;;;;;17.73;9.02;;;20.80;99.90;;;;;;7416076;19;20011;-88
2021/09/10 07:16:55;;;;;;;14.48;9.25;;;20.80;99.90;;;;;;7427896;19;20011;-89
2021/09/10 07:19:25;;;;;;;18.52;9.57;;;20.90;99.90;;;;;;7417305;19;20029;-91
2021/09/10 07:21:56;;;;;;;17.38;9.07;;;21.00;99.90;;;;;;7409280;19;20014;-90
2021/09/10 07:24:26;;;;;;;13.63;9.02;;;21.10;99.90;;;;;;7409269;19;20458;-89
2021/09/10 07:26:58;;;;;;;18.63;9.73;;;21.20;99.90;;;;;;7407151;19;20026;-91
2021/09/10 07:29:30;;;;;;;13.23;9.25;;;21.30;99.90;;;;;;7409768;19;20010;-90
2021/09/10 07:31:59;;;;;;;14.60;9.02;;;21.40;99.90;;;;;;7407226;19;20014;-90
2021/09/10 07:34:30;;;;;;;12.85;8.70;;;21.30;99.90;;;;;;7407635;19;20082;-90
2021/09/10 07:36:59;;;;;;;17.95;8.90;;;21.40;99.90;;;;;;7409512;19;20039;-89
2021/09/10 07:39:29;;;;;;;19.85;8.77;;;21.50;99.90;;;;;;7407161;19;20035;-89
2021/09/10 07:41:58;;;;;;;15.77;9.70;;;21.50;99.90;;;;;;7409004;19;20427;-91
2021/09/10 07:44:31;;;;;;;15.65;9.02;;;21.70;99.90;;;;;;7407537;19;20007;-90
2021/09/10 07:47:00;;;;;;;14.38;9.40;;;21.70;99.90;;;;;;7411189;19;20006;-88
2021/09/10 07:49:30;;;;;;;16.83;8.95;;;21.80;99.90;;;;;;7410672;19;20015;-90
2021/09/10 07:51:59;;;;;;;13.98;9.27;;;21.80;99.90;;;;;;7412947;19;20014;-90
2021/09/10 07:54:33;;;;;;;14.85;8.35;;;21.80;99.90;;;;;;7411972;19;20010;-89
2021/09/10 07:57:02;;;;;;;15.10;9.02;;;21.90;99.90;;;;;;7414172;19;20010;-91
2021/09/10 07:59:42;;;;;;;14.13;8.70;;;21.90;99.90;;;;;;7411583;19;20305;-91
2021/09/10 08:02:11;;;;;;;16.70;9.13;;;22.00;99.90;;;;;;7412342;19;20009;-91
2021/09/10 08:04:46;;;;;;;20.70;9.70;;;22.00;99.90;;;;;;7407781;19;20003;-90
2021/09/10 08:07:18;;;;;;;20.65;9.20;;;22.10;99.90;;;;;;7409304;19;20002;-91
2021/09/10 08:09:47;;;;;;;15.77;8.73;;;22.10;99.90;;;;;;7411080;19;20011;-91
2021/09/10 08:12:17;;;;;;;17.40;9.18;;;22.10;99.90;;;;;;7414535;19;20010;-91
2021/09/10 08:14:49;;;;;;;14.32;8.73;;;22.20;99.90;;;;;;7413876;19;20011;-91
2021/09/10 08:17:21;;;;;;;13.77;8.52;;;22.20;99.90;;;;;;7413109;19;20014;-89
2021/09/10 08:19:53;;;;;;;16.98;8.18;;;22.40;99.90;;;;;;7413880;19;20011;-89
2021/09/10 08:22:22;;;;;;;16.27;9.90;;;22.60;99.90;;;;;;7414145;19;20041;-92
2021/09/10 08:24:54;;;;;;;13.88;8.40;;;22.60;99.90;;;;;;7408653;19;20148;-85
2021/09/10 08:27:26;;;;;;;12.38;8.80;;;22.70;99.90;;;;;;7408173;19;20065;-90
2021/09/10 08:30:00;;;;;;;19.55;8.32;;;22.80;99.90;;;;;;7405603;19;20425;-88
2021/09/10 08:32:33;;;;;;;14.27;8.50;;;23.10;99.90;;;;;;7408414;19;20029;-88
2021/09/10 08:35:02;;;;;;;11.45;7.80;;;23.20;99.90;;;;;;7403424;19;20018;-89
2021/09/10 08:37:34;;;;;;;17.85;8.50;;;23.40;99.90;;;;;;7407504;19;20070;-87
2021/09/10 08:40:04;;;;;;;11.38;7.07;;;23.60;99.90;;;;;;7400949;19;20317;-89
2021/09/10 08:42:38;;;;;;;12.50;7.20;;;23.90;99.90;;;;;;7403331;19;20018;-91
2021/09/10 08:45:12;;;;;;;13.20;8.07;;;24.00;99.90;;;;;;7403592;19;20021;-92
2021/09/10 08:47:45;;;;;;;14.00;8.20;;;24.10;99.90;;;;;;7410463;19;20027;-90
2021/09/10 08:50:17;;;;;;;15.63;8.30;;;24.00;99.90;;;;;;7405546;19;20039;-91
2021/09/10 08:52:46;;;;;;;15.18;7.55;;;24.10;99.90;;;;;;7405294;19;20014;-91
2021/09/10 08:55:16;;;;;;;12.45;7.93;;;24.30;99.90;;;;;;7405498;19;20040;-90
2021/09/10 08:57:50;;;;;;;12.85;7.10;;;24.40;99.90;;;;;;7416739;19;20048;-91
2021/09/10 09:00:30;;;;;;;18.40;7.88;;;24.40;99.90;;;;;;7424116;19;20058;-90
2021/09/10 09:03:01;;;;;;;11.70;7.00;;;24.50;99.90;;;;;;7427334;19;20039;-91
2021/09/10 09:05:32;;;;;;;10.43;6.22;;;24.40;99.90;;;;;;7425516;19;20027;-91
2021/09/10 09:08:21;;;;;;;16.15;7.72;;;24.60;99.90;;;;;;7425872;19;20035;-90
2021/09/10 09:10:56;;;;;;;12.90;6.60;;;24.60;99.90;;;;;;7424104;19;20030;-90
2021/09/10 09:13:28;;;;;;;14.15;7.40;;;24.90;99.90;;;;;;7425745;19;20051;-91
2021/09/10 09:16:16;;;;;;;11.45;7.20;;;24.70;99.90;;;;;;7415192;19;20019;-81
2021/09/10 09:18:47;;;;;;;15.30;7.43;;;24.50;99.90;;;;;;7399935;19;20013;-81
2021/09/10 09:21:22;;;;;;;14.93;7.07;;;24.50;99.90;;;;;;7395777;19;20418;-81
2021/09/10 09:23:53;;;;;;;10.32;7.13;;;24.80;99.90;;;;;;7401503;19;20014;-80
2021/09/10 09:26:27;;;;;;;11.60;6.63;;;25.00;99.90;;;;;;7396242;19;20119;-80
2021/09/10 09:29:10;;;;;;;13.98;6.78;;;24.50;99.90;;;;;;7400698;19;20029;-80
2021/09/10 09:31:47;;;;;;;10.43;6.63;;;24.60;99.90;;;;;;7399848;19;20015;-80
2021/09/10 09:34:16;;;;;;;11.43;6.68;;;24.80;99.90;;;;;;7397288;19;20018;-81
2021/09/10 09:36:55;;;;;;;9.82;6.78;;;24.80;99.50;;;;;;7398138;19;20400;-81
2021/09/10 09:39:26;;;;;;;11.90;6.20;;;25.20;99.20;;;;;;7399850;19;20073;-81
2021/09/10 09:41:55;;;;;;;11.27;6.28;;;25.70;97.90;;;;;;7401799;19;20421;-80
2021/09/10 09:44:25;;;;;;;15.13;6.72;;;25.70;97.40;;;;;;7397146;19;20010;-80
2021/09/10 09:47:03;;;;;;;18.23;7.00;;;26.10;96.70;;;;;;7401213;19;20011;-80
2021/09/10 09:49:32;;;;;;;11.77;5.72;;;26.30;96.40;;;;;;7401279;19;20014;-81
2021/09/10 09:52:04;;;;;;;11.10;6.20;;;26.80;95.00;;;;;;7395464;19;20336;-80
2021/09/10 09:54:34;;;;;;;9.85;6.22;;;27.30;94.30;;;;;;7397321;19;20014;-80
2021/09/10 09:57:04;;;;;;;12.20;6.25;;;27.90;92.80;;;;;;7399008;19;20018;-80
2021/09/10 09:59:34;;;;;;;8.93;5.78;;;27.40;92.30;;;;;;7398122;19;20021;-80
2021/09/10 10:02:06;;;;;;;10.73;6.07;;;27.30;92.50;;;;;;7396657;19;20017;-80
2021/09/10 10:04:36;;;;;;;9.02;5.60;;;26.90;92.90;;;;;;7396253;19;20325;-80
2021/09/10 10:07:11;;;;;;;9.95;5.88;;;27.30;92.50;;;;;;7398436;19;20011;-80
2021/09/10 10:09:43;;;;;;;11.68;6.55;;;27.40;91.80;;;;;;7400879;19;20030;-81
2021/09/10 10:12:22;;;;;;;11.18;6.00;;;27.50;91.70;;;;;;7395766;19;20403;-81
2021/09/10 10:14:54;;;;;;;11.05;6.10;;;27.40;91.40;;;;;;7396152;19;20189;-80
2021/09/10 10:17:45;;;;;;;10.25;5.95;;;28.00;90.80;;;;;;7396736;19;20308;-80
2021/09/10 10:20:49;;;;;;;10.13;5.90;;;28.20;89.40;;;;;;7394038;19;20034;-81
2021/09/10 10:23:49;;;;;;;13.15;6.28;;;28.10;89.20;;;;;;7396598;19;20405;-80
2021/09/10 10:26:21;;;;;;;12.43;5.55;;;29.20;86.00;;;;;;7395463;19;20019;-80
2021/09/10 10:28:56;;;;;;;9.05;4.97;;;28.80;85.00;;;;;;7396060;19;20022;-80
2021/09/10 10:32:00;;;;;;;7.15;4.38;;;28.20;86.50;;;;;;7398511;19;20048;-80
2021/09/10 10:35:14;;;;;;;11.65;5.40;;;29.00;84.60;;;;;;7395388;19;20085;-79
2021/09/10 10:37:45;;;;;;;14.70;5.88;;;29.30;82.40;;;;;;7398098;19;20038;-79
2021/09/10 10:40:31;;;;;;;8.77;5.15;;;28.50;83.60;;;;;;7394052;19;20011;-81
2021/09/10 10:43:03;;;;;;;17.30;5.80;;;28.30;84.30;;;;;;7395475;19;20025;-80
2021/09/10 10:46:02;;;;;;;13.68;5.60;;;28.00;85.30;;;;;;7406171;19;20090;-79
2021/09/10 10:48:51;;;;;;;8.70;5.40;;;27.40;85.70;;;;;;7403346;19;20040;-80
2021/09/10 10:51:47;;;;;;;8.95;5.43;;;27.40;87.20;;;;;;7405510;19;20019;-80
2021/09/10 10:54:18;;;;;;;9.93;5.47;;;27.50;87.10;;;;;;7404200;19;20393;-80
2021/09/10 10:56:52;;;;;;;9.25;5.53;;;28.00;85.20;;;;;;7406618;19;20077;-81
2021/09/10 10:59:36;;;;;;;9.93;5.80;;;28.10;84.20;;;;;;7404658;19;20015;-81
2021/09/10 11:02:25;;;;;;;9.77;5.78;;;27.80;85.10;;;;;;7402193;19;20006;-80
2021/09/10 11:05:00;;;;;;;9.20;4.88;;;28.50;82.70;;;;;;7403996;19;20018;-81
2021/09/10 11:07:33;;;;;;;8.75;4.30;;;29.30;80.00;;;;;;7405315;19;20014;-80
2021/09/10 11:10:05;;;;;;;6.88;4.80;;;30.10;77.60;;;;;;7401920;19;20017;-80
2021/09/10 11:12:38;;;;;;;9.60;4.85;;;30.20;75.50;;;;;;7402755;19;20025;-81
2021/09/10 11:15:20;;;;;;;10.63;5.30;;;30.70;74.90;;;;;;7402473;19;20029;-80
2021/09/10 11:18:03;;;;;;;11.55;5.00;;;31.00;73.30;;;;;;7404441;19;20011;-80
2021/09/10 11:20:38;;;;;;;12.55;4.93;;;31.00;72.70;;;;;;7402759;19;20050;-80
2021/09/10 11:23:12;;;;;;;7.07;4.25;;;32.40;70.00;;;;;;7400789;19;20432;-80
2021/09/10 11:25:50;;;;;;;6.40;4.32;;;33.60;65.30;;;;;;7403798;19;20013;-79
2021/09/10 11:28:25;;;;;;;5.75;4.00;;;34.10;63.50;;;;;;7400974;19;20066;-80
2021/09/10 11:30:57;;;;;;;6.47;3.90;;;33.70;61.60;;;;;;7406110;19;20040;-80
2021/09/10 11:33:27;;;;;;;6.80;4.00;;;32.50;62.70;;;;;;7404552;19;20458;-81
2021/09/10 11:36:00;;;;;;;8.23;4.13;;;31.70;64.50;;;;;;7401774;19;20029;-81
2021/09/10 11:38:33;;;;;;;8.30;4.07;;;32.00;64.70;;;;;;7401687;19;20333;-80
2021/09/10 11:41:08;;;;;;;6.65;3.53;;;32.70;63.40;;;;;;7401184;19;20010;-81
2021/09/10 11:43:38;;;;;;;6.32;4.25;;;33.60;60.80;;;;;;7400745;19;20029;-81
2021/09/10 11:46:12;;;;;;;5.88;4.00;;;33.40;58.90;;;;;;7401373;19;20005;-80
2021/09/10 11:48:48;;;;;;;8.77;3.80;;;31.70;60.40;;;;;;7401185;19;20090;-79
2021/09/10 11:51:39;;;;;;;6.80;4.65;;;30.00;64.80;;;;;;7402746;19;20011;-80
2021/09/10 11:54:18;;;;;;;8.30;4.15;;;29.50;67.00;;;;;;7399840;19;20044;-82
2021/09/10 11:56:49;;;;;;;11.52;4.55;;;29.30;66.50;;;;;;7402256;19;20415;-80
2021/09/10 11:59:25;;;;;;;7.13;5.07;;;29.00;67.80;;;;;;7405046;19;20424;-81
2021/09/10 12:01:57;;;;;;;8.10;4.37;;;29.10;68.50;;;;;;7405118;19;20324;-81
2021/09/10 12:04:29;;;;;;;6.60;3.83;;;30.30;67.00;;;;;;7412412;19;20026;-81
2021/09/10 12:07:01;;;;;;;15.80;4.95;;;31.90;64.00;;;;;;7403888;19;20012;-81
2021/09/10 12:09:37;;;;;;;10.38;4.63;;;33.40;59.30;;;;;;7404387;19;20006;-81
2021/09/10 12:12:17;;;;;;;8.52;3.90;;;32.70;59.80;;;;;;7400277;19;20433;-81
2021/09/10 12:14:57;;;;;;;8.90;4.15;;;32.80;60.00;;;;;;7400322;19;20014;-80
2021/09/10 12:17:33;;;;;;;7.18;3.60;;;35.20;56.40;;;;;;7401834;19;20010;-81
2021/09/10 12:20:08;;;;;;;6.78;3.75;;;36.30;53.30;;;;;;7398164;19;20045;-81
2021/09/10 12:23:00;;;;;;;5.28;3.60;;;35.30;51.20;;;;;;7400942;19;20018;-81
2021/09/10 12:25:40;;;;;;;5.57;3.60;;;33.90;54.20;;;;;;7402279;19;20456;-80
2021/09/10 12:28:32;;;;;;;6.28;3.80;;;33.60;55.30;;;;;;7398964;19;20010;-81
2021/09/10 12:31:09;;;;;;;6.97;3.85;;;33.50;55.50;;;;;;7400074;19;20344;-81
2021/09/10 12:33:43;;;;;;;8.07;4.20;;;35.00;55.30;;;;;;7400400;19;20015;-80
2021/09/10 12:36:19;;;;;;;7.93;3.55;;;36.10;53.60;;;;;;7398855;19;20007;-82
2021/09/10 12:38:48;;;;;;;7.60;3.65;;;36.30;52.70;;;;;;7398707;19;20018;-81
2021/09/10 12:41:20;;;;;;;9.50;4.47;;;36.60;52.50;;;;;;7399410;19;20018;-81
2021/09/10 12:43:52;;;;;;;7.05;3.70;;;37.00;52.20;;;;;;7400144;19;20412;-81
2021/09/10 12:46:22;;;;;;;6.80;3.47;;;37.40;50.30;;;;;;7398230;19;20309;-80
2021/09/10 12:48:55;;;;;;;6.07;3.67;;;35.50;52.30;;;;;;7399493;19;20046;-79
2021/09/10 12:51:26;;;;;;;7.00;3.92;;;35.00;53.80;;;;;;7400388;19;20025;-80
2021/09/10 12:53:56;;;;;;;5.28;3.72;;;34.70;53.70;;;;;;7401969;19;20011;-81
2021/09/10 12:56:29;;;;;;;5.22;3.45;;;34.50;54.30;;;;;;7398162;19;20425;-81
2021/09/10 12:59:02;;;;;;;9.70;7.18;;;34.10;54.70;;;;;;7400014;19;20006;-81
2021/09/10 13:01:33;;;;;;;5.97;3.78;;;33.90;55.00;;;;;;7400841;19;20019;-82